Time;durP1;ratioP1;P1;durP2;ratioP2;P2;SDS_P1;SDS_P2;PMS_P1;PMS_P2;Temp;Humidity;BMP_temperature;BMP_pressure;BME280_temperature;BME280_humidity;BME280_pressure;Samples;Min_cycle;Max_cycle;Signal;HPM_P1;HPM_P2
2022/11/26 00:02:09;;;;;;;;;;;6.90;99.90;;;;;;4956438;28;20005;-64
2022/11/26 00:04:35;;;;;;;;;;;6.80;99.90;;;;;;4948326;28;19914;-64
2022/11/26 00:07:00;;;;;;;;;;;6.90;99.90;;;;;;4955683;28;19936;-64
2022/11/26 00:09:26;;;;;;;;;;;7.00;99.90;;;;;;4960625;28;19914;-64
2022/11/26 00:11:51;;;;;;;;;;;7.00;99.90;;;;;;4965106;28;19946;-64
2022/11/26 00:14:16;;;;;;;;;;;7.00;99.90;;;;;;4954314;28;19928;-64
2022/11/26 00:16:42;;;;;;;;;;;6.90;99.90;;;;;;4953629;28;20453;-64
2022/11/26 00:19:08;;;;;;;;;;;6.90;99.90;;;;;;4984312;28;19914;-64
2022/11/26 00:21:34;;;;;;;;;;;7.00;99.90;;;;;;4960657;28;19911;-64
2022/11/26 00:24:01;;;;;;;;;;;7.00;99.90;;;;;;4954966;28;20100;-64
2022/11/26 00:26:27;;;;;;;;;;;6.80;99.90;;;;;;4964819;28;20361;-64
2022/11/26 00:28:54;;;;;;;;;;;6.70;99.90;;;;;;4959387;28;19940;-64
2022/11/26 00:31:19;;;;;;;;;;;6.70;99.90;;;;;;4958935;28;20247;-64
2022/11/26 00:33:45;;;;;;;;;;;6.60;99.90;;;;;;4947594;28;19918;-64
2022/11/26 00:36:24;;;;;;;;;;;6.60;99.90;;;;;;4956848;28;20233;-64
2022/11/26 00:38:51;;;;;;;;;;;6.60;99.90;;;;;;4963677;28;19926;-64
2022/11/26 00:41:20;;;;;;;;;;;6.60;99.90;;;;;;4960633;28;19915;-64
2022/11/26 00:43:46;;;;;;;;;;;6.60;99.90;;;;;;4963425;28;20310;-64
2022/11/26 00:46:13;;;;;;;;;;;6.50;99.90;;;;;;4956909;28;19918;-64
2022/11/26 00:48:38;;;;;;;;;;;6.50;99.90;;;;;;4964952;28;19914;-64
2022/11/26 00:51:04;;;;;;;;;;;6.50;99.90;;;;;;4959565;28;19910;-64
2022/11/26 00:53:29;;;;;;;;;;;6.50;99.90;;;;;;4962812;28;20001;-64
2022/11/26 00:55:55;;;;;;;;;;;6.50;99.90;;;;;;4961716;28;20282;-64
2022/11/26 00:58:23;;;;;;;;;;;6.50;99.90;;;;;;4957523;28;19922;-64
2022/11/26 01:00:49;;;;;;;;;;;6.50;99.90;;;;;;4957648;28;20458;-64
2022/11/26 01:03:14;;;;;;;;;;;6.40;99.90;;;;;;4958449;28;19918;-64
2022/11/26 01:05:40;;;;;;;;;;;6.50;99.90;;;;;;4960078;28;19945;-64
2022/11/26 01:08:15;;;;;;;;;;;6.60;99.90;;;;;;4950760;28;19918;-64
2022/11/26 01:10:40;;;;;;;;;;;6.60;99.90;;;;;;4961063;28;19918;-64
2022/11/26 01:13:08;;;;;;;;;;;6.60;99.90;;;;;;4961550;28;19973;-64
2022/11/26 01:15:34;;;;;;;;;;;6.70;99.90;;;;;;4961505;28;19980;-64
2022/11/26 01:17:59;;;;;;;;;;;6.70;99.90;;;;;;4961710;28;19921;-64
2022/11/26 01:20:29;;;;;;;;;;;6.70;99.90;;;;;;4946814;28;19985;-64
2022/11/26 01:22:55;;;;;;;;;;;6.60;99.90;;;;;;4958138;28;20461;-64
2022/11/26 01:25:21;;;;;;;;;;;6.50;99.90;;;;;;4960052;28;19925;-64
2022/11/26 01:27:47;;;;;;;;;;;6.50;99.90;;;;;;4970050;28;20434;-64
2022/11/26 01:30:33;;;;;;;;;;;6.70;99.90;;;;;;4966088;28;20005;-64
2022/11/26 01:32:59;;;;;;;;;;;6.60;99.90;;;;;;4962675;28;19922;-64
2022/11/26 01:35:26;;;;;;;;;;;6.40;99.90;;;;;;4963442;28;19977;-64
2022/11/26 01:37:51;;;;;;;;;;;6.80;99.90;;;;;;4957642;28;19918;-64
2022/11/26 01:40:17;;;;;;;;;;;6.30;99.90;;;;;;4961306;28;20350;-64
2022/11/26 01:42:45;;;;;;;;;;;6.20;99.90;;;;;;4965615;28;19921;-64
2022/11/26 01:45:17;;;;;;;;;;;6.30;99.90;;;;;;4956817;28;20000;-64
2022/11/26 01:47:47;;;;;;;;;;;6.30;99.90;;;;;;4962616;28;20016;-64
2022/11/26 01:50:28;;;;;;;;;;;6.20;99.90;;;;;;4961252;28;20373;-64
2022/11/26 01:53:05;;;;;;;;;;;6.20;99.90;;;;;;4958535;28;19973;-64
2022/11/26 01:55:35;;;;;;;;;;;6.20;99.90;;;;;;4961947;28;19996;-64
2022/11/26 01:58:01;;;;;;;;;;;6.20;99.90;;;;;;4964844;28;19926;-64
2022/11/26 02:00:27;;;;;;;;;;;6.20;99.90;;;;;;4960685;28;19924;-64
2022/11/26 02:02:53;;;;;;;;;;;5.80;99.90;;;;;;4965606;28;19918;-64
2022/11/26 02:05:27;;;;;;;;;;;6.20;99.90;;;;;;4965349;28;19961;-64
2022/11/26 02:07:52;;;;;;;;;;;6.10;99.90;;;;;;4965556;28;19914;-64
2022/11/26 02:10:18;;;;;;;;;;;6.10;99.90;;;;;;4962136;28;19922;-64
2022/11/26 02:12:43;;;;;;;;;;;6.20;99.90;;;;;;4961661;28;19914;-64
2022/11/26 02:15:09;;;;;;;;;;;6.10;99.90;;;;;;4953779;28;20078;-64
2022/11/26 02:17:37;;;;;;;;;;;6.10;99.90;;;;;;4959716;28;19972;-64
2022/11/26 02:20:03;;;;;;;;;;;6.10;99.90;;;;;;4959206;28;19934;-64
2022/11/26 02:22:37;;;;;;;;;;;6.10;99.90;;;;;;4956696;28;19914;-64
2022/11/26 02:25:18;;;;;;;;;;;6.10;99.90;;;;;;4963233;28;20305;-64
2022/11/26 02:27:52;;;;;;;;;;;6.00;99.90;;;;;;4967204;28;19944;-64
2022/11/26 02:30:18;;;;;;;;;;;6.20;99.90;;;;;;4966054;28;19919;-64
2022/11/26 02:32:59;;;;;;;;;;;6.00;99.90;;;;;;4959152;28;20641;-64
2022/11/26 02:35:43;;;;;;;;;;;5.90;99.90;;;;;;4957162;28;20006;-64
2022/11/26 02:38:11;;;;;;;;;;;6.90;99.90;;;;;;4960461;28;19918;-64
2022/11/26 02:40:36;;;;;;;;;;;6.40;99.90;;;;;;4959490;28;19910;-64
2022/11/26 02:43:02;;;;;;;;;;;5.80;99.90;;;;;;4957146;28;20332;-64
2022/11/26 02:45:29;;;;;;;;;;;5.80;99.90;;;;;;4957416;28;19914;-64
2022/11/26 02:47:57;;;;;;;;;;;5.70;99.90;;;;;;4954796;28;20157;-64
2022/11/26 02:50:31;;;;;;;;;;;5.70;99.90;;;;;;4960777;28;19918;-64
2022/11/26 02:52:57;;;;;;;;;;;5.70;99.90;;;;;;4956655;28;20354;-64
2022/11/26 02:55:24;;;;;;;;;;;5.70;99.90;;;;;;4966551;28;20009;-64
2022/11/26 02:57:50;;;;;;;;;;;5.70;99.90;;;;;;4964619;28;19930;-64
2022/11/26 03:00:16;;;;;;;;;;;5.60;99.90;;;;;;4959191;28;19914;-64
2022/11/26 03:02:47;;;;;;;;;;;5.70;99.90;;;;;;4954240;28;20189;-64
2022/11/26 03:05:15;;;;;;;;;;;5.60;99.90;;;;;;4965483;28;20055;-64
2022/11/26 03:07:41;;;;;;;;;;;5.60;99.90;;;;;;4982882;28;19922;-64
2022/11/26 03:10:07;;;;;;;;;;;5.50;99.90;;;;;;4964827;28;19947;-64
2022/11/26 03:12:32;;;;;;;;;;;5.50;99.90;;;;;;4963209;28;20309;-64
2022/11/26 03:14:58;;;;;;;;;;;5.50;99.90;;;;;;4960713;28;19942;-64
2022/11/26 03:17:23;;;;;;;;;;;5.50;99.90;;;;;;4963991;28;20571;-64
2022/11/26 03:19:49;;;;;;;;;;;5.50;99.90;;;;;;4965506;28;19914;-64
2022/11/26 03:22:14;;;;;;;;;;;5.50;99.90;;;;;;4965374;28;20345;-64
2022/11/26 03:24:40;;;;;;;;;;;5.50;99.90;;;;;;4966244;28;19918;-64
2022/11/26 03:27:05;;;;;;;;;;;5.50;99.90;;;;;;4964049;28;19918;-64
2022/11/26 03:29:31;;;;;;;;;;;5.50;99.90;;;;;;4961978;28;20374;-64
2022/11/26 03:31:56;;;;;;;;;;;5.40;99.90;;;;;;4958946;28;20211;-64
2022/11/26 03:34:22;;;;;;;;;;;5.50;99.90;;;;;;4963547;28;20405;-64
2022/11/26 03:36:47;;;;;;;;;;;5.40;99.90;;;;;;4961346;28;19921;-64
2022/11/26 03:39:13;;;;;;;;;;;5.40;99.90;;;;;;4964061;28;19921;-64
2022/11/26 03:41:41;;;;;;;;;;;5.40;99.90;;;;;;4962250;28;19921;-64
2022/11/26 03:44:06;;;;;;;;;;;5.30;99.90;;;;;;4959670;28;19910;-64
2022/11/26 03:46:32;;;;;;;;;;;5.40;99.90;;;;;;4960527;28;19985;-64
2022/11/26 03:48:57;;;;;;;;;;;5.30;99.90;;;;;;4962560;28;20008;-64
2022/11/26 03:51:23;;;;;;;;;;;5.30;99.90;;;;;;4978015;28;20509;-64
2022/11/26 03:53:48;;;;;;;;;;;5.40;99.90;;;;;;4963583;28;19921;-64
2022/11/26 03:56:14;;;;;;;;;;;5.30;99.90;;;;;;4955114;28;19997;-64
2022/11/26 03:58:39;;;;;;;;;;;5.30;99.90;;;;;;4958527;28;19921;-64
2022/11/26 04:01:09;;;;;;;;;;;5.30;99.90;;;;;;4961790;28;19922;-64
2022/11/26 04:03:34;;;;;;;;;;;5.30;99.90;;;;;;4966371;28;20337;-64
2022/11/26 04:06:00;;;;;;;;;;;5.30;99.90;;;;;;4957746;28;20012;-64
2022/11/26 04:08:25;;;;;;;;;;;5.30;99.90;;;;;;4956984;28;19910;-64
2022/11/26 04:10:51;;;;;;;;;;;5.30;99.90;;;;;;4958127;28;19956;-64
2022/11/26 04:13:16;;;;;;;;;;;5.40;99.90;;;;;;4965215;28;19914;-64
2022/11/26 04:15:42;;;;;;;;;;;5.30;99.90;;;;;;4962069;28;20258;-64
2022/11/26 04:18:07;;;;;;;;;;;5.40;99.90;;;;;;4958157;28;19938;-64
2022/11/26 04:20:32;;;;;;;;;;;5.50;99.90;;;;;;4959386;28;19914;-64
2022/11/26 04:22:58;;;;;;;;;;;5.60;99.90;;;;;;4962624;28;19929;-64
2022/11/26 04:25:25;;;;;;;;;;;5.50;99.90;;;;;;4964783;28;19918;-64
2022/11/26 04:27:50;;;;;;;;;;;5.50;99.90;;;;;;4968699;28;20437;-64
2022/11/26 04:30:16;;;;;;;;;;;5.50;99.90;;;;;;4959627;28;19916;-64
2022/11/26 04:32:41;;;;;;;;;;;5.60;99.90;;;;;;4963362;28;20355;-64
2022/11/26 04:35:07;;;;;;;;;;;5.50;99.90;;;;;;4956170;28;20290;-64
2022/11/26 04:37:33;;;;;;;;;;;5.60;99.90;;;;;;4965262;28;19928;-64
2022/11/26 04:39:58;;;;;;;;;;;5.70;99.90;;;;;;4957688;28;19922;-64
2022/11/26 04:42:24;;;;;;;;;;;5.60;99.90;;;;;;4955960;28;20282;-64
2022/11/26 04:44:49;;;;;;;;;;;5.60;99.90;;;;;;4959148;28;20471;-64
2022/11/26 04:47:15;;;;;;;;;;;5.60;99.90;;;;;;4951815;28;20550;-64
2022/11/26 04:49:40;;;;;;;;;;;5.60;99.90;;;;;;4955058;28;19945;-64
2022/11/26 04:52:06;;;;;;;;;;;5.50;99.90;;;;;;4962448;28;19996;-64
2022/11/26 04:54:31;;;;;;;;;;;5.50;99.90;;;;;;4964036;28;19914;-64
2022/11/26 04:56:57;;;;;;;;;;;5.50;99.90;;;;;;4956825;28;19920;-64
2022/11/26 04:59:22;;;;;;;;;;;5.60;99.90;;;;;;4957497;28;19922;-64
2022/11/26 05:01:48;;;;;;;;;;;5.60;99.90;;;;;;4961027;28;19953;-64
2022/11/26 05:04:13;;;;;;;;;;;5.50;99.90;;;;;;4950694;28;20255;-64
2022/11/26 05:06:39;;;;;;;;;;;5.50;99.90;;;;;;4969349;28;19949;-64
2022/11/26 05:09:04;;;;;;;;;;;5.50;99.90;;;;;;4960598;28;19921;-64
2022/11/26 05:11:29;;;;;;;;;;;5.50;99.90;;;;;;4968685;28;19976;-64
2022/11/26 05:13:55;;;;;;;;;;;5.50;99.90;;;;;;4967265;28;19914;-64
2022/11/26 05:16:20;;;;;;;;;;;5.50;99.90;;;;;;4967196;28;20544;-64
2022/11/26 05:18:46;;;;;;;;;;;5.50;99.90;;;;;;4964282;28;19914;-64
2022/11/26 05:21:11;;;;;;;;;;;5.50;99.90;;;;;;4966495;28;19918;-64
2022/11/26 05:23:37;;;;;;;;;;;5.50;99.90;;;;;;4968796;28;20467;-64
2022/11/26 05:26:02;;;;;;;;;;;5.50;99.90;;;;;;4968045;28;19914;-64
2022/11/26 05:28:28;;;;;;;;;;;5.40;99.90;;;;;;4968167;28;19973;-64
2022/11/26 05:30:58;;;;;;;;;;;5.40;99.90;;;;;;4967791;28;20315;-64
2022/11/26 05:33:24;;;;;;;;;;;5.40;99.90;;;;;;4965750;28;19918;-64
2022/11/26 05:35:49;;;;;;;;;;;5.40;99.90;;;;;;4968540;28;20357;-64
2022/11/26 05:38:15;;;;;;;;;;;5.40;99.90;;;;;;4951309;28;19918;-64
2022/11/26 05:40:40;;;;;;;;;;;5.30;99.90;;;;;;4969579;28;19918;-64
2022/11/26 05:43:06;;;;;;;;;;;5.30;99.90;;;;;;4957347;28;20081;-64
2022/11/26 05:45:31;;;;;;;;;;;5.30;99.90;;;;;;4967104;28;20325;-64
2022/11/26 05:47:57;;;;;;;;;;;5.30;99.90;;;;;;4966902;28;19914;-64
2022/11/26 05:50:22;;;;;;;;;;;5.30;99.90;;;;;;4968513;28;19920;-64
2022/11/26 05:52:48;;;;;;;;;;;5.20;99.90;;;;;;4968465;28;19921;-64
2022/11/26 05:55:15;;;;;;;;;;;5.20;99.90;;;;;;4964846;28;20296;-64
2022/11/26 05:57:40;;;;;;;;;;;5.10;99.90;;;;;;4961906;28;19976;-64
2022/11/26 06:00:06;;;;;;;;;;;5.20;99.90;;;;;;4962086;28;20278;-64
2022/11/26 06:02:32;;;;;;;;;;;5.20;99.90;;;;;;4960608;28;19950;-64
2022/11/26 06:04:57;;;;;;;;;;;5.10;99.90;;;;;;4964239;28;19922;-64
2022/11/26 06:07:23;;;;;;;;;;;5.30;99.90;;;;;;4967810;28;19922;-64
2022/11/26 06:09:48;;;;;;;;;;;5.00;99.90;;;;;;4966192;28;20130;-63
2022/11/26 06:12:14;;;;;;;;;;;5.10;99.90;;;;;;4964991;28;20384;-64
2022/11/26 06:14:39;;;;;;;;;;;5.10;99.90;;;;;;4965068;28;19964;-64
2022/11/26 06:17:04;;;;;;;;;;;5.10;99.90;;;;;;4956143;28;19954;-63
2022/11/26 06:19:30;;;;;;;;;;;5.10;99.90;;;;;;4961590;28;19976;-63
2022/11/26 06:21:55;;;;;;;;;;;5.10;99.90;;;;;;4966999;28;19914;-64
2022/11/26 06:24:21;;;;;;;;;;;5.00;99.90;;;;;;4963449;28;19976;-63
2022/11/26 06:26:46;;;;;;;;;;;5.00;99.90;;;;;;4960080;28;19945;-63
2022/11/26 06:29:12;;;;;;;;;;;5.00;99.90;;;;;;4962592;28;19914;-63
2022/11/26 06:31:37;;;;;;;;;;;5.00;99.90;;;;;;4964529;28;19914;-63
2022/11/26 06:34:03;;;;;;;;;;;5.00;99.90;;;;;;4962067;28;20289;-64
2022/11/26 06:36:28;;;;;;;;;;;5.00;99.90;;;;;;4969421;28;19989;-63
2022/11/26 06:38:54;;;;;;;;;;;5.00;99.90;;;;;;4957731;28;19918;-63
2022/11/26 06:41:19;;;;;;;;;;;5.00;99.90;;;;;;4960306;28;20359;-63
2022/11/26 06:43:45;;;;;;;;;;;5.00;99.90;;;;;;4960115;28;19913;-64
2022/11/26 06:46:11;;;;;;;;;;;5.00;99.90;;;;;;4962395;28;20369;-63
2022/11/26 06:48:37;;;;;;;;;;;4.90;99.90;;;;;;4958115;28;19910;-64
2022/11/26 06:51:07;;;;;;;;;;;4.90;99.90;;;;;;4953957;28;19911;-63
2022/11/26 06:53:32;;;;;;;;;;;4.90;99.90;;;;;;4945957;28;19910;-63
2022/11/26 06:55:58;;;;;;;;;;;4.90;99.90;;;;;;4960605;28;19944;-64
2022/11/26 06:58:24;;;;;;;;;;;4.90;99.90;;;;;;4961281;28;19966;-63
2022/11/26 07:00:49;;;;;;;;;;;4.80;99.90;;;;;;4957462;28;19958;-64
2022/11/26 07:03:15;;;;;;;;;;;4.90;99.90;;;;;;4957689;28;19922;-64
2022/11/26 07:05:40;;;;;;;;;;;4.90;99.90;;;;;;4956859;28;19918;-64
2022/11/26 07:08:06;;;;;;;;;;;4.80;99.90;;;;;;4956830;28;20373;-63
2022/11/26 07:10:31;;;;;;;;;;;4.80;99.90;;;;;;4959052;28;19926;-63
2022/11/26 07:12:57;;;;;;;;;;;4.90;99.90;;;;;;4957268;28;19932;-64
2022/11/26 07:15:22;;;;;;;;;;;4.80;99.90;;;;;;4956640;28;19922;-64
2022/11/26 07:17:48;;;;;;;;;;;4.90;99.90;;;;;;4959242;28;19922;-62
2022/11/26 07:20:13;;;;;;;;;;;4.90;99.90;;;;;;4959992;28;19918;-63
2022/11/26 07:22:39;;;;;;;;;;;4.90;99.90;;;;;;4962049;28;19993;-63
2022/11/26 07:25:04;;;;;;;;;;;4.90;99.90;;;;;;4960114;28;19932;-63
2022/11/26 07:27:30;;;;;;;;;;;5.00;99.90;;;;;;4962606;28;19926;-63
2022/11/26 07:29:55;;;;;;;;;;;5.00;99.90;;;;;;4959254;28;19922;-63
2022/11/26 07:32:21;;;;;;;;;;;5.00;99.90;;;;;;4959513;28;20265;-63
2022/11/26 07:34:46;;;;;;;;;;;5.00;99.90;;;;;;4965424;28;19969;-63
2022/11/26 07:37:11;;;;;;;;;;;5.00;99.90;;;;;;4963519;28;20004;-63
2022/11/26 07:39:37;;;;;;;;;;;5.10;99.90;;;;;;4962770;28;20537;-63
2022/11/26 07:42:03;;;;;;;;;;;5.30;99.90;;;;;;4960805;28;19964;-63
2022/11/26 07:44:28;;;;;;;;;;;5.40;99.90;;;;;;4963953;28;20281;-63
2022/11/26 07:46:54;;;;;;;;;;;5.50;99.90;;;;;;4965065;28;19921;-62
2022/11/26 07:49:19;;;;;;;;;;;5.40;99.90;;;;;;4964870;28;19910;-62
2022/11/26 07:51:45;;;;;;;;;;;5.40;99.90;;;;;;4956066;28;20271;-62
2022/11/26 07:54:10;;;;;;;;;;;5.40;99.90;;;;;;4955990;28;19918;-62
2022/11/26 07:56:36;;;;;;;;;;;5.40;99.90;;;;;;4964044;28;19920;-61
2022/11/26 07:59:02;;;;;;;;;;;5.40;99.90;;;;;;4955378;28;19993;-62
2022/11/26 08:01:31;;;;;;;;;;;5.50;99.90;;;;;;4960008;28;19983;-62
2022/11/26 08:03:58;;;;;;;;;;;5.60;99.90;;;;;;4963362;28;20314;-61
2022/11/26 08:06:25;;;;;;;;;;;5.60;99.90;;;;;;4962452;28;20017;-61
2022/11/26 08:08:51;;;;;;;;;;;5.60;99.90;;;;;;4963104;28;19958;-61
2022/11/26 08:11:18;;;;;;;;;;;5.70;99.90;;;;;;4965135;28;19972;-62
2022/11/26 08:13:43;;;;;;;;;;;5.60;99.90;;;;;;4960117;28;19933;-61
2022/11/26 08:16:09;;;;;;;;;;;5.60;99.90;;;;;;4959059;28;19910;-61
2022/11/26 08:18:35;;;;;;;;;;;5.80;99.90;;;;;;4956402;28;20556;-61
2022/11/26 08:21:00;;;;;;;;;;;5.80;99.90;;;;;;4964948;28;19956;-62
2022/11/26 08:23:27;;;;;;;;;;;5.80;99.90;;;;;;4952765;28;19918;-61
2022/11/26 08:25:53;;;;;;;;;;;5.80;99.90;;;;;;4962173;28;20424;-62
2022/11/26 08:28:18;;;;;;;;;;;6.00;99.90;;;;;;4974348;28;19922;-62
2022/11/26 08:30:44;;;;;;;;;;;6.00;99.90;;;;;;4952308;28;19972;-62
2022/11/26 08:33:09;;;;;;;;;;;6.00;99.90;;;;;;4953795;28;20263;-62
2022/11/26 08:35:36;;;;;;;;;;;6.00;99.90;;;;;;4964227;28;20050;-62
2022/11/26 08:38:01;;;;;;;;;;;6.00;99.90;;;;;;4960785;28;19954;-62
2022/11/26 08:40:27;;;;;;;;;;;6.00;99.90;;;;;;4950705;28;20585;-62
2022/11/26 08:42:52;;;;;;;;;;;6.20;99.90;;;;;;4958416;28;20402;-62
2022/11/26 08:45:18;;;;;;;;;;;6.30;99.90;;;;;;4953096;28;19910;-62
2022/11/26 08:47:43;;;;;;;;;;;6.40;99.90;;;;;;4955105;28;19950;-62
2022/11/26 08:50:09;;;;;;;;;;;6.40;99.90;;;;;;4958976;28;19915;-63
2022/11/26 08:52:34;;;;;;;;;;;6.50;99.90;;;;;;4958324;28;20564;-61
2022/11/26 08:55:00;;;;;;;;;;;6.50;99.90;;;;;;4961452;28;20020;-62
2022/11/26 08:57:25;;;;;;;;;;;6.60;99.90;;;;;;4962145;28;20441;-62
2022/11/26 08:59:53;;;;;;;;;;;6.70;99.90;;;;;;4952096;28;19921;-62
2022/11/26 09:02:19;;;;;;;;;;;6.80;99.90;;;;;;4963296;28;19915;-62
2022/11/26 09:04:45;;;;;;;;;;;6.90;99.90;;;;;;4951399;28;20354;-62
2022/11/26 09:07:10;;;;;;;;;;;7.00;99.90;;;;;;4952964;28;19910;-62
2022/11/26 09:09:36;;;;;;;;;;;7.00;99.90;;;;;;4960528;28;19917;-62
2022/11/26 09:12:01;;;;;;;;;;;6.90;99.90;;;;;;4955987;28;19972;-62
2022/11/26 09:14:28;;;;;;;;;;;7.10;99.90;;;;;;4958684;28;19920;-62
2022/11/26 09:16:54;;;;;;;;;;;7.00;99.90;;;;;;4961270;28;20309;-62
2022/11/26 09:19:20;;;;;;;;;;;7.00;99.90;;;;;;4957300;28;19910;-62
2022/11/26 09:21:45;;;;;;;;;;;7.00;99.90;;;;;;4956285;28;19917;-62
2022/11/26 09:24:11;;;;;;;;;;;7.00;99.90;;;;;;4958200;28;19941;-63
2022/11/26 09:26:37;;;;;;;;;;;7.10;99.90;;;;;;4955654;28;20000;-61
2022/11/26 09:29:03;;;;;;;;;;;7.10;99.90;;;;;;4957300;28;19997;-61
2022/11/26 09:31:28;;;;;;;;;;;7.10;99.90;;;;;;4960756;28;19941;-61
2022/11/26 09:33:55;;;;;;;;;;;7.20;99.90;;;;;;4957900;28;19924;-61
2022/11/26 09:36:21;;;;;;;;;;;7.20;99.90;;;;;;4962766;28;19958;-61
2022/11/26 09:38:46;;;;;;;;;;;7.20;99.90;;;;;;4952499;28;19980;-61
2022/11/26 09:41:27;;;;;;;;;;;7.20;99.90;;;;;;4960648;28;19918;-61
2022/11/26 09:44:12;;;;;;;;;;;7.30;99.90;;;;;;4960177;28;19918;-61
2022/11/26 09:46:54;;;;;;;;;;;7.10;99.90;;;;;;4960710;28;19914;-62
2022/11/26 09:49:19;;;;;;;;;;;7.30;99.90;;;;;;4948690;28;19946;-62
2022/11/26 09:51:48;;;;;;;;;;;7.30;99.90;;;;;;4961972;28;19945;-62
2022/11/26 09:54:16;;;;;;;;;;;7.20;99.90;;;;;;4956695;28;20274;-62
2022/11/26 09:56:41;;;;;;;;;;;7.30;99.90;;;;;;4956181;28;19913;-62
2022/11/26 09:59:10;;;;;;;;;;;7.40;99.90;;;;;;4958086;28;19923;-62
2022/11/26 10:01:36;;;;;;;;;;;7.50;99.90;;;;;;4964686;28;19921;-62
2022/11/26 10:04:05;;;;;;;;;;;7.50;99.90;;;;;;4972506;28;19922;-62
2022/11/26 10:06:33;;;;;;;;;;;7.60;99.90;;;;;;4965521;28;19946;-62
2022/11/26 10:09:02;;;;;;;;;;;7.80;99.90;;;;;;4979093;28;20005;-62
2022/11/26 10:11:40;;;;;;;;;;;7.80;99.90;;;;;;4967868;28;20340;-62
2022/11/26 10:14:08;;;;;;;;;;;7.80;99.90;;;;;;4960016;28;19969;-62
2022/11/26 10:16:42;;;;;;;;;;;7.80;99.90;;;;;;4955481;28;20392;-62
2022/11/26 10:19:15;;;;;;;;;;;7.90;99.90;;;;;;4964607;28;19926;-62
2022/11/26 10:21:43;;;;;;;;;;;7.70;99.90;;;;;;4942647;28;19911;-62
2022/11/26 10:24:14;;;;;;;;;;;7.80;99.90;;;;;;4952781;28;20362;-62
2022/11/26 10:26:40;;;;;;;;;;;7.90;99.90;;;;;;4960537;28;19957;-62
2022/11/26 10:29:24;;;;;;;;;;;8.00;99.90;;;;;;4955735;28;20335;-62
2022/11/26 10:31:53;;;;;;;;;;;8.10;99.90;;;;;;4957701;28;19925;-62
2022/11/26 10:34:40;;;;;;;;;;;8.10;99.90;;;;;;4961391;28;19920;-62
2022/11/26 10:37:06;;;;;;;;;;;8.20;99.90;;;;;;4965983;28;19925;-62
2022/11/26 10:39:31;;;;;;;;;;;8.20;99.90;;;;;;4962925;28;19921;-62
2022/11/26 10:42:02;;;;;;;;;;;8.20;99.90;;;;;;4968344;28;20285;-62
2022/11/26 10:44:28;;;;;;;;;;;8.20;99.90;;;;;;4953394;28;19915;-63
2022/11/26 10:46:53;;;;;;;;;;;8.30;99.90;;;;;;4962853;28;19914;-62
2022/11/26 10:49:22;;;;;;;;;;;8.30;99.90;;;;;;4963439;28;19911;-63
2022/11/26 10:51:48;;;;;;;;;;;8.40;99.90;;;;;;4960606;28;19910;-62
2022/11/26 10:54:33;;;;;;;;;;;8.30;99.90;;;;;;4962872;28;19910;-62
2022/11/26 10:57:10;;;;;;;;;;;8.40;99.90;;;;;;4966429;28;19917;-62
2022/11/26 10:59:39;;;;;;;;;;;8.40;99.90;;;;;;4964685;28;19918;-63
2022/11/26 11:02:23;;;;;;;;;;;8.40;99.90;;;;;;4962561;28;19920;-62
2022/11/26 11:04:50;;;;;;;;;;;8.30;99.90;;;;;;4953780;28;20085;-62
2022/11/26 11:07:39;;;;;;;;;;;8.40;99.90;;;;;;4959762;28;20373;-62
2022/11/26 11:10:08;;;;;;;;;;;8.40;99.90;;;;;;4957558;28;20321;-62
2022/11/26 11:12:54;;;;;;;;;;;8.50;99.90;;;;;;4962046;28;20361;-62
2022/11/26 11:15:20;;;;;;;;;;;8.50;99.90;;;;;;4947700;28;20251;-62
2022/11/26 11:17:52;;;;;;;;;;;8.40;99.90;;;;;;4953243;28;19930;-62
2022/11/26 11:20:28;;;;;;;;;;;8.40;99.90;;;;;;4955660;28;19965;-63
2022/11/26 11:23:00;;;;;;;;;;;8.40;99.90;;;;;;4956592;28;19993;-63
2022/11/26 11:25:30;;;;;;;;;;;8.50;99.90;;;;;;4958484;28;20334;-63
2022/11/26 11:28:00;;;;;;;;;;;8.60;99.90;;;;;;4952952;28;19929;-63
2022/11/26 11:30:31;;;;;;;;;;;8.50;99.90;;;;;;4951551;28;19957;-63
2022/11/26 11:33:08;;;;;;;;;;;8.60;99.90;;;;;;4962694;28;19917;-63
2022/11/26 11:35:33;;;;;;;;;;;8.70;99.90;;;;;;4960028;28;19918;-62
2022/11/26 11:37:59;;;;;;;;;;;8.70;99.90;;;;;;4957206;28;19918;-63
2022/11/26 11:40:29;;;;;;;;;;;8.60;99.90;;;;;;4987108;28;19996;-63
2022/11/26 11:43:02;;;;;;;;;;;8.60;99.90;;;;;;4952650;28;20010;-63
2022/11/26 11:45:38;;;;;;;;;;;8.70;99.90;;;;;;4967163;28;19921;-63
2022/11/26 11:48:17;;;;;;;;;;;8.70;99.90;;;;;;4949455;28;19910;-63
2022/11/26 11:50:45;;;;;;;;;;;8.70;99.90;;;;;;4952454;28;19914;-63
2022/11/26 11:53:17;;;;;;;;;;;8.60;99.90;;;;;;4951768;28;19918;-63
2022/11/26 11:56:10;;;;;;;;;;;8.60;99.90;;;;;;4962147;28;20344;-63
2022/11/26 11:58:37;;;;;;;;;;;8.70;99.90;;;;;;4953465;28;19922;-63
2022/11/26 12:01:25;;;;;;;;;;;8.70;99.90;;;;;;4956745;28;20421;-63
2022/11/26 12:04:17;;;;;;;;;;;8.80;99.90;;;;;;4957406;28;19918;-63
2022/11/26 12:06:43;;;;;;;;;;;8.80;99.90;;;;;;4960164;28;19922;-63
2022/11/26 12:09:16;;;;;;;;;;;8.90;99.90;;;;;;4963611;28;19910;-64
2022/11/26 12:11:51;;;;;;;;;;;9.10;99.90;;;;;;4956419;28;19914;-64
2022/11/26 12:14:16;;;;;;;;;;;9.10;99.90;;;;;;4962509;28;20433;-63
2022/11/26 12:16:43;;;;;;;;;;;9.10;99.90;;;;;;4963614;28;20052;-63
2022/11/26 12:19:27;;;;;;;;;;;9.10;99.90;;;;;;4973781;28;20385;-63
2022/11/26 12:21:56;;;;;;;;;;;9.20;99.90;;;;;;4952612;28;19911;-64
2022/11/26 12:24:40;;;;;;;;;;;9.30;99.90;;;;;;4965693;28;19982;-64
2022/11/26 12:27:14;;;;;;;;;;;9.30;99.90;;;;;;4963720;28;19918;-62
2022/11/26 12:29:41;;;;;;;;;;;9.30;99.90;;;;;;4956812;28;19949;-62
2022/11/26 12:32:10;;;;;;;;;;;9.50;99.90;;;;;;4952511;28;20260;-62
2022/11/26 12:34:45;;;;;;;;;;;9.50;99.90;;;;;;4958207;28;19917;-62
2022/11/26 12:37:14;;;;;;;;;;;9.50;99.90;;;;;;4958627;28;19961;-62
2022/11/26 12:39:45;;;;;;;;;;;9.40;99.90;;;;;;4957972;28;19985;-62
2022/11/26 12:42:14;;;;;;;;;;;9.50;99.90;;;;;;4977120;28;19911;-62
2022/11/26 12:44:40;;;;;;;;;;;9.60;99.90;;;;;;4967229;28;19910;-62
2022/11/26 12:47:18;;;;;;;;;;;9.60;99.90;;;;;;4954589;28;19925;-62
2022/11/26 12:49:52;;;;;;;;;;;9.50;99.90;;;;;;4958101;28;20476;-62
2022/11/26 12:52:24;;;;;;;;;;;9.50;99.90;;;;;;4970696;28;19917;-62
2022/11/26 12:55:01;;;;;;;;;;;9.60;99.90;;;;;;4953147;28;19910;-62
2022/11/26 12:57:36;;;;;;;;;;;9.70;99.90;;;;;;4956924;28;19915;-62
2022/11/26 13:00:06;;;;;;;;;;;9.80;99.90;;;;;;4961591;28;20357;-62
2022/11/26 13:02:34;;;;;;;;;;;9.80;99.90;;;;;;4958608;28;19918;-63
2022/11/26 13:04:59;;;;;;;;;;;9.90;99.90;;;;;;4980090;28;20539;-62
2022/11/26 13:07:45;;;;;;;;;;;9.90;99.90;;;;;;4972961;28;19915;-62
2022/11/26 13:10:24;;;;;;;;;;;9.90;99.90;;;;;;4963867;28;19918;-62
2022/11/26 13:13:06;;;;;;;;;;;9.90;99.90;;;;;;4965910;28;20366;-63
2022/11/26 13:15:48;;;;;;;;;;;9.70;99.90;;;;;;4954781;28;19910;-64
2022/11/26 13:18:20;;;;;;;;;;;9.80;99.90;;;;;;4960196;28;19921;-64
2022/11/26 13:20:46;;;;;;;;;;;9.80;99.90;;;;;;4959337;28;20135;-64
2022/11/26 13:23:14;;;;;;;;;;;9.80;99.90;;;;;;4960258;28;20409;-64
2022/11/26 13:25:49;;;;;;;;;;;9.80;99.90;;;;;;4976491;28;20017;-64
2022/11/26 13:28:21;;;;;;;;;;;9.80;99.90;;;;;;4963800;28;19926;-64
2022/11/26 13:31:04;;;;;;;;;;;9.90;99.90;;;;;;4967622;28;20377;-63
2022/11/26 13:34:02;;;;;;;;;;;10.00;99.90;;;;;;4962951;28;20396;-64
2022/11/26 13:36:45;;;;;;;;;;;10.10;99.90;;;;;;4953850;28;19945;-63
2022/11/26 13:39:29;;;;;;;;;;;10.00;99.90;;;;;;4962949;28;20013;-63
2022/11/26 13:42:00;;;;;;;;;;;10.10;99.90;;;;;;4960057;28;20582;-63
2022/11/26 13:44:35;;;;;;;;;;;10.00;99.90;;;;;;4966478;28;19922;-63
2022/11/26 13:47:05;;;;;;;;;;;10.00;99.90;;;;;;4964900;28;19918;-64
2022/11/26 13:49:35;;;;;;;;;;;10.20;99.90;;;;;;4979008;28;20393;-64
2022/11/26 13:52:03;;;;;;;;;;;10.10;99.90;;;;;;4965733;28;20398;-64
2022/11/26 13:54:34;;;;;;;;;;;10.00;99.90;;;;;;4980403;28;19968;-64
2022/11/26 13:57:02;;;;;;;;;;;10.10;99.90;;;;;;4965303;28;20009;-64
2022/11/26 13:59:27;;;;;;;;;;;10.10;99.90;;;;;;4964551;28;20393;-64
2022/11/26 14:01:53;;;;;;;;;;;9.90;99.90;;;;;;4964256;28;19922;-63
2022/11/26 14:04:21;;;;;;;;;;;9.90;99.90;;;;;;4960911;28;20286;-64
2022/11/26 14:07:05;;;;;;;;;;;9.90;99.90;;;;;;4962572;28;20004;-63
2022/11/26 14:09:45;;;;;;;;;;;9.90;99.90;;;;;;4960659;28;20893;-63
2022/11/26 14:12:12;;;;;;;;;;;9.80;99.90;;;;;;4959680;28;19926;-63
2022/11/26 14:14:38;;;;;;;;;;;9.70;99.90;;;;;;4964232;28;19922;-63
2022/11/26 14:17:04;;;;;;;;;;;9.80;99.90;;;;;;4963751;28;19922;-63
2022/11/26 14:19:39;;;;;;;;;;;9.70;99.90;;;;;;4960750;28;20144;-63
2022/11/26 14:22:24;;;;;;;;;;;9.80;99.90;;;;;;4965360;28;20434;-63
2022/11/26 14:24:49;;;;;;;;;;;9.70;99.90;;;;;;4968319;28;20045;-63
2022/11/26 14:27:16;;;;;;;;;;;9.70;99.90;;;;;;4967663;28;20037;-63
2022/11/26 14:29:42;;;;;;;;;;;9.70;99.90;;;;;;4958509;28;19919;-63
2022/11/26 14:32:10;;;;;;;;;;;9.60;99.90;;;;;;4959847;28;19949;-63
2022/11/26 14:34:42;;;;;;;;;;;9.60;99.90;;;;;;4958356;28;20524;-63
2022/11/26 14:37:10;;;;;;;;;;;9.60;99.90;;;;;;4965405;28;20598;-63